createdAt,value
2023-04-12T00:00:22.864Z,1.67
2023-04-12T00:03:25.738Z,1.60
2023-04-12T00:06:32.661Z,1.60
2023-04-12T00:09:36.503Z,1.85
2023-04-12T00:12:41.644Z,2.00
2023-04-12T00:15:44.537Z,1.77
2023-04-12T00:18:47.433Z,2.03
2023-04-12T00:21:50.300Z,1.88
2023-04-12T00:24:53.197Z,2.20
2023-04-12T00:27:57.370Z,2.07
2023-04-12T00:31:00.113Z,2.00
2023-04-12T00:34:03.044Z,1.90
2023-04-12T00:37:05.768Z,2.55
2023-04-12T00:40:10.804Z,1.90
2023-04-12T00:43:19.073Z,2.00
2023-04-12T00:46:21.974Z,1.73
2023-04-12T00:49:24.933Z,2.10
2023-04-12T00:52:29.112Z,2.08
2023-04-12T00:55:32.234Z,1.73
2023-04-12T00:58:36.650Z,1.90
2023-04-12T01:01:41.519Z,2.35
2023-04-12T01:04:45.075Z,2.00
2023-04-12T01:07:54.512Z,1.73
2023-04-12T01:11:05.344Z,1.75
2023-04-12T01:14:16.497Z,1.90
2023-04-12T01:17:25.031Z,2.08
2023-04-12T01:20:31.332Z,1.70
2023-04-12T01:24:02.870Z,1.98
2023-04-12T01:27:13.635Z,2.22
2023-04-12T01:30:20.592Z,2.10
2023-04-12T01:33:31.278Z,2.00
2023-04-12T01:36:35.607Z,2.33
2023-04-12T01:39:38.691Z,2.28
2023-04-12T01:42:41.383Z,2.03
2023-04-12T01:45:46.274Z,2.00
2023-04-12T01:48:51.266Z,2.17
2023-04-12T01:51:59.444Z,2.42
2023-04-12T01:55:06.074Z,2.00
2023-04-12T01:58:11.630Z,2.17
2023-04-12T02:01:18.423Z,2.10
2023-04-12T02:04:22.479Z,1.92
2023-04-12T02:07:25.354Z,1.90
2023-04-12T02:10:31.987Z,2.38
2023-04-12T02:13:34.674Z,2.60
2023-04-12T02:16:39.579Z,2.30
2023-04-12T02:19:42.288Z,2.08
2023-04-12T02:22:45.138Z,2.13
2023-04-12T02:25:47.866Z,2.33
2023-04-12T02:28:50.707Z,2.00
2023-04-12T02:31:54.909Z,2.17
2023-04-12T02:34:59.216Z,1.95
2023-04-12T02:38:02.026Z,2.25
2023-04-12T02:41:04.871Z,2.22
2023-04-12T02:44:07.726Z,2.13
2023-04-12T02:47:11.886Z,2.00
2023-04-12T02:50:14.724Z,2.08
2023-04-12T02:53:17.875Z,2.20
2023-04-12T02:56:21.826Z,2.42
2023-04-12T02:59:25.252Z,2.10
2023-04-12T03:02:29.703Z,1.80
2023-04-12T03:05:32.752Z,2.05
2023-04-12T03:08:36.077Z,2.42
2023-04-12T03:11:39.298Z,1.83
2023-04-12T03:14:42.012Z,2.33
2023-04-12T03:17:46.284Z,2.30
2023-04-12T03:20:49.116Z,2.17
2023-04-12T03:23:52.583Z,2.20
2023-04-12T03:26:55.922Z,2.10
2023-04-12T03:29:58.664Z,2.35
2023-04-12T03:33:03.192Z,2.10
2023-04-12T03:36:06.813Z,2.20
2023-04-12T03:39:09.507Z,2.05
2023-04-12T03:45:32.698Z,2.25
2023-04-12T03:48:37.902Z,2.20
2023-04-12T03:51:42.662Z,2.20
2023-04-12T03:54:45.559Z,2.03
2023-04-12T03:57:48.602Z,2.42
2023-04-12T04:00:51.652Z,2.20
2023-04-12T04:03:56.122Z,2.10
2023-04-12T04:06:59.330Z,2.25
2023-04-12T04:10:02.769Z,2.30
2023-04-12T04:13:05.458Z,2.40
2023-04-12T04:16:11.018Z,2.47
2023-04-12T04:19:15.687Z,2.23
2023-04-12T04:22:21.660Z,2.72
2023-04-12T04:25:29.826Z,2.05
2023-04-12T04:28:35.170Z,2.40
2023-04-12T04:31:38.051Z,2.80
2023-04-12T04:34:42.327Z,2.40
2023-04-12T04:37:45.489Z,2.80
2023-04-12T04:40:53.250Z,2.40
2023-04-12T04:43:56.264Z,2.40
2023-04-12T04:47:00.691Z,3.20
2023-04-12T04:50:05.309Z,2.30
2023-04-12T04:53:08.024Z,2.60
2023-04-12T04:56:11.498Z,2.63
2023-04-12T04:59:14.261Z,2.78
2023-04-12T05:02:17.349Z,2.90
2023-04-12T05:05:23.251Z,2.60
2023-04-12T05:08:26.596Z,2.78
2023-04-12T05:11:29.446Z,2.88
2023-04-12T05:14:45.417Z,2.83
2023-04-12T05:17:50.608Z,2.75
2023-04-12T05:20:54.726Z,3.03
2023-04-12T05:23:57.574Z,3.13
2023-04-12T05:27:00.324Z,2.97
2023-04-12T05:30:03.149Z,3.28
2023-04-12T05:33:05.846Z,3.38
2023-04-12T05:36:10.823Z,3.20
2023-04-12T05:39:13.880Z,3.22
2023-04-12T05:42:16.619Z,3.30
2023-04-12T05:45:19.355Z,3.80
2023-04-12T05:48:23.263Z,3.80
2023-04-12T05:51:39.747Z,4.00
2023-04-12T05:54:43.541Z,4.35
2023-04-12T05:57:47.518Z,4.25
2023-04-12T06:00:50.353Z,4.00
2023-04-12T06:03:53.202Z,3.88
2023-04-12T06:06:57.842Z,4.10
2023-04-12T06:10:00.583Z,3.83
2023-04-12T06:13:03.468Z,4.10
2023-04-12T06:16:07.031Z,3.42
2023-04-12T06:19:10.933Z,4.13
2023-04-12T06:22:15.027Z,3.73
2023-04-12T06:25:17.790Z,3.60
2023-04-12T06:28:20.673Z,3.67
2023-04-12T06:31:23.566Z,3.63
2023-04-12T06:34:26.575Z,3.53
2023-04-12T06:37:30.718Z,3.60
2023-04-12T06:40:33.661Z,3.60
2023-04-12T06:43:36.963Z,3.47
2023-04-12T06:46:39.894Z,3.00
2023-04-12T06:49:42.870Z,3.53
2023-04-12T06:52:48.346Z,2.97
2023-04-12T06:55:51.146Z,3.10
2023-04-12T06:58:53.874Z,3.03
2023-04-12T07:01:56.748Z,2.50
2023-04-12T07:04:59.446Z,2.10
2023-04-12T07:08:03.610Z,1.90
2023-04-12T07:11:20.049Z,1.90
2023-04-12T07:14:24.098Z,2.33
2023-04-12T07:17:27.995Z,1.95
2023-04-12T07:20:30.881Z,2.05
2023-04-12T07:23:35.107Z,2.00
2023-04-12T07:26:37.869Z,2.10
2023-04-12T07:29:40.702Z,1.80
2023-04-12T07:32:43.503Z,1.73
2023-04-12T07:35:46.281Z,1.80
2023-04-12T07:38:55.146Z,1.50
2023-04-12T07:41:58.712Z,1.88
2023-04-12T07:45:01.581Z,1.83
2023-04-12T07:48:04.788Z,1.60
2023-04-12T07:51:07.771Z,1.50
2023-04-12T07:54:31.672Z,1.40
2023-04-12T07:57:34.534Z,1.20
2023-04-12T08:00:37.447Z,1.70
2023-04-12T08:03:40.276Z,1.50
2023-04-12T08:06:43.446Z,1.75
2023-04-12T08:09:48.319Z,1.60
2023-04-12T08:12:51.189Z,1.93
2023-04-12T08:15:54.120Z,1.80
2023-04-12T08:18:57.615Z,1.67
2023-04-12T08:22:00.479Z,1.80
2023-04-12T08:25:04.786Z,1.50
2023-04-12T08:28:08.514Z,1.40
2023-04-12T08:31:11.636Z,1.60
2023-04-12T08:34:14.555Z,1.40
2023-04-12T08:37:18.030Z,1.70
2023-04-12T08:40:22.779Z,1.27
2023-04-12T08:43:29.792Z,1.40
2023-04-12T08:46:32.707Z,1.00
2023-04-12T08:49:36.205Z,1.20
2023-04-12T08:52:39.581Z,1.20
2023-04-12T08:55:46.240Z,1.35
2023-04-12T08:58:49.860Z,0.87
2023-04-12T09:01:53.819Z,1.20
2023-04-12T09:04:56.986Z,1.02
2023-04-12T09:08:00.070Z,1.45
2023-04-12T09:11:23.223Z,1.10
2023-04-12T09:14:27.386Z,1.40
2023-04-12T09:17:30.405Z,1.37
2023-04-12T09:20:33.484Z,1.40
2023-04-12T09:23:37.276Z,1.42
2023-04-12T09:26:41.380Z,1.75
2023-04-12T09:29:45.567Z,1.40
2023-04-12T09:32:49.522Z,1.23
2023-04-12T09:36:01.498Z,1.50
2023-04-12T09:39:05.191Z,1.30
2023-04-12T09:42:25.493Z,1.70
2023-04-12T09:45:35.766Z,1.43
2023-04-12T09:48:39.146Z,1.60
2023-04-12T09:51:42.097Z,1.88
2023-04-12T09:54:46.443Z,1.20
2023-04-12T09:57:52.516Z,1.60
2023-04-12T10:00:58.108Z,1.40
2023-04-12T10:04:01.859Z,1.60
2023-04-12T10:07:05.900Z,1.48
2023-04-12T10:10:12.218Z,1.30
2023-04-12T10:13:18.532Z,1.60
2023-04-12T10:16:22.426Z,1.20
2023-04-12T10:19:27.016Z,1.58
2023-04-12T10:22:30.282Z,1.50
2023-04-12T10:25:34.118Z,1.10
2023-04-12T10:28:38.390Z,1.37
2023-04-12T10:31:42.185Z,1.30
2023-04-12T10:34:44.996Z,1.20
2023-04-12T10:38:01.357Z,1.48
2023-04-12T10:41:18.465Z,1.10
2023-04-12T10:44:28.560Z,1.40
2023-04-12T10:48:03.898Z,1.27
2023-04-12T10:51:22.897Z,1.50
2023-04-12T10:54:35.481Z,1.20
2023-04-12T10:57:47.206Z,1.40
2023-04-12T11:01:18.244Z,1.37
2023-04-12T11:04:22.698Z,1.60
2023-04-12T11:07:40.449Z,1.70
2023-04-12T11:10:47.149Z,1.45
2023-04-12T11:13:49.987Z,1.42
2023-04-12T11:17:25.937Z,1.60
2023-04-12T11:20:29.068Z,1.43
2023-04-12T11:23:32.338Z,1.23
2023-04-12T11:26:37.708Z,1.42
2023-04-12T11:29:40.908Z,1.75
2023-04-12T11:32:47.739Z,1.40
2023-04-12T11:35:50.613Z,1.50
2023-04-12T11:38:56.751Z,1.30
2023-04-12T11:42:02.400Z,1.33
2023-04-12T11:45:15.412Z,1.30
2023-04-12T11:48:21.925Z,1.10
2023-04-12T11:51:29.894Z,1.03
2023-04-12T11:54:35.147Z,1.20
2023-04-12T11:57:40.080Z,1.58
2023-04-12T12:00:44.992Z,1.65
2023-04-12T12:03:50.505Z,2.07
2023-04-12T12:06:54.222Z,1.33
2023-04-12T12:09:57.462Z,1.40
2023-04-12T12:13:01.123Z,1.80
2023-04-12T12:16:08.505Z,1.40
2023-04-12T12:19:12.608Z,1.30
2023-04-12T12:22:17.530Z,1.40
2023-04-12T12:25:20.821Z,1.50
2023-04-12T12:28:24.938Z,1.40
2023-04-12T12:31:29.120Z,1.13
2023-04-12T12:34:35.109Z,1.10
2023-04-12T12:37:37.873Z,1.07
2023-04-12T12:40:40.797Z,1.08
2023-04-12T12:43:46.547Z,1.17
2023-04-12T12:46:55.531Z,1.20
2023-04-12T12:50:01.207Z,1.40
2023-04-12T12:53:06.108Z,1.00
2023-04-12T12:56:10.208Z,1.13
2023-04-12T12:59:12.965Z,1.60
2023-04-12T13:02:18.210Z,1.50
2023-04-12T13:05:23.334Z,1.30
2023-04-12T13:08:26.988Z,1.17
2023-04-12T13:11:29.706Z,1.10
2023-04-12T13:14:32.637Z,1.13
2023-04-12T13:17:35.690Z,1.20
2023-04-12T13:20:40.014Z,1.13
2023-04-12T13:23:42.771Z,1.83
2023-04-12T13:26:46.054Z,1.48
2023-04-12T13:29:48.785Z,1.20
2023-04-12T13:32:51.521Z,1.40
2023-04-12T13:35:55.651Z,1.10
2023-04-12T13:38:58.469Z,1.20
2023-04-12T13:42:02.177Z,1.00
2023-04-12T13:45:05.479Z,1.10
2023-04-12T13:48:08.294Z,1.15
2023-04-12T13:51:12.636Z,1.50
2023-04-12T13:54:17.362Z,1.60
2023-04-12T13:57:20.105Z,1.15
2023-04-12T14:00:22.897Z,1.25
2023-04-12T14:03:25.813Z,1.38
2023-04-12T14:06:30.129Z,1.40
2023-04-12T14:09:33.822Z,1.23
2023-04-12T14:12:36.729Z,1.20
2023-04-12T14:15:39.587Z,1.30
2023-04-12T14:18:42.286Z,1.25
2023-04-12T14:21:47.808Z,1.30
2023-04-12T14:24:50.637Z,1.20
2023-04-12T14:27:53.587Z,1.10
2023-04-12T14:30:56.354Z,1.42
2023-04-12T14:33:59.518Z,1.30
2023-04-12T14:37:03.777Z,1.23
2023-04-12T14:40:08.484Z,1.40
2023-04-12T14:43:11.534Z,0.93
2023-04-12T14:46:14.327Z,1.20
2023-04-12T14:49:17.268Z,1.00
2023-04-12T14:52:21.328Z,1.23
2023-04-12T14:55:24.143Z,1.30
2023-04-12T14:58:29.301Z,1.30
2023-04-12T15:01:32.177Z,1.30
2023-04-12T15:04:35.078Z,1.55
2023-04-12T15:07:39.574Z,1.50
2023-04-12T15:10:42.897Z,1.50
2023-04-12T15:13:45.806Z,1.00
2023-04-12T15:16:50.445Z,1.65
2023-04-12T15:19:53.448Z,1.30
2023-04-12T15:22:57.623Z,1.53
2023-04-12T15:26:01.904Z,1.60
2023-04-12T15:29:04.785Z,1.73
2023-04-12T15:32:08.959Z,1.55
2023-04-12T15:38:22.997Z,1.80
2023-04-12T15:41:26.564Z,1.80
2023-04-12T15:44:31.979Z,1.80
2023-04-12T15:47:34.849Z,1.77
2023-04-12T15:50:37.711Z,1.85
2023-04-12T15:53:43.400Z,1.90
2023-04-12T15:56:46.246Z,2.00
2023-04-12T15:59:50.200Z,2.15
2023-04-12T16:02:54.725Z,2.40
2023-04-12T16:05:57.815Z,2.00
2023-04-12T16:09:02.448Z,2.30
2023-04-12T16:12:05.885Z,2.20
2023-04-12T16:15:09.503Z,2.22
2023-04-12T16:18:12.655Z,2.60
2023-04-12T16:21:20.209Z,2.50
2023-04-12T16:24:24.597Z,2.43
2023-04-12T16:27:29.417Z,2.30
2023-04-12T16:30:32.787Z,2.42
2023-04-12T16:33:35.850Z,2.47
2023-04-12T16:36:39.284Z,2.15
2023-04-12T16:39:44.394Z,2.00
2023-04-12T16:42:47.119Z,2.22
2023-04-12T16:45:49.878Z,2.33
2023-04-12T16:48:52.602Z,2.10
2023-04-12T16:51:55.558Z,2.70
2023-04-12T16:55:00.553Z,2.57
2023-04-12T16:58:03.559Z,2.20
2023-04-12T17:01:07.903Z,2.40
2023-04-12T17:04:10.680Z,2.50
2023-04-12T17:07:13.646Z,2.58
2023-04-12T17:10:19.511Z,2.50
2023-04-12T17:13:22.396Z,2.58
2023-04-12T17:16:25.546Z,2.70
2023-04-12T17:19:28.356Z,2.20
2023-04-12T17:22:31.616Z,1.95
2023-04-12T17:25:35.850Z,1.80
2023-04-12T17:28:39.654Z,1.95
2023-04-12T17:31:42.870Z,2.10
2023-04-12T17:34:45.546Z,2.35
2023-04-12T17:37:48.733Z,2.10
2023-04-12T17:40:52.946Z,2.03
2023-04-12T17:43:55.863Z,2.00
2023-04-12T17:46:58.964Z,1.95
2023-04-12T17:50:01.693Z,1.88
2023-04-12T17:53:04.473Z,1.98
2023-04-12T17:56:09.822Z,1.77
2023-04-12T17:59:12.549Z,2.10
2023-04-12T18:02:16.959Z,2.50
2023-04-12T18:05:19.894Z,2.45
2023-04-12T18:08:24.034Z,2.55
2023-04-12T18:11:28.508Z,2.80
2023-04-12T18:14:31.358Z,2.22
2023-04-12T18:17:34.251Z,2.75
2023-04-12T18:20:37.058Z,3.08
2023-04-12T18:23:39.936Z,2.88
2023-04-12T18:26:44.603Z,5.07
2023-04-12T18:29:47.305Z,2.50
2023-04-12T18:32:50.282Z,2.60
2023-04-12T18:35:54.319Z,6.20
2023-04-12T18:38:57.204Z,5.00
2023-04-12T18:42:01.536Z,2.83
2023-04-12T18:45:04.873Z,2.42
2023-04-12T18:48:08.548Z,2.88
2023-04-12T18:51:11.663Z,2.90
2023-04-12T18:54:17.501Z,3.30
2023-04-12T18:57:21.967Z,3.30
2023-04-12T19:00:24.981Z,2.80
2023-04-12T19:03:28.677Z,3.17
2023-04-12T19:06:31.496Z,3.33
2023-04-12T19:09:34.388Z,3.70
2023-04-12T19:12:38.493Z,3.07
2023-04-12T19:15:41.349Z,2.80
2023-04-12T19:18:44.213Z,3.10
2023-04-12T19:21:47.311Z,2.97
2023-04-12T19:24:51.009Z,2.90
2023-04-12T19:27:55.076Z,2.60
2023-04-12T19:30:58.434Z,2.63
2023-04-12T19:34:01.133Z,3.13
2023-04-12T19:37:03.901Z,2.80
2023-04-12T19:40:08.923Z,2.80
2023-04-12T19:43:14.163Z,2.93
2023-04-12T19:46:17.761Z,3.10
2023-04-12T19:49:22.126Z,3.05
2023-04-12T19:52:27.198Z,3.20
2023-04-12T19:55:30.591Z,2.90
2023-04-12T19:58:34.896Z,2.67
2023-04-12T20:01:47.644Z,2.50
2023-04-12T20:04:50.794Z,2.60
2023-04-12T20:07:55.723Z,3.70
2023-04-12T20:10:58.657Z,2.95
2023-04-12T20:14:02.974Z,4.57
2023-04-12T20:17:06.924Z,2.70
2023-04-12T20:20:14.124Z,3.58
2023-04-12T20:23:17.095Z,2.60
2023-04-12T20:26:21.174Z,2.60
2023-04-12T20:29:25.462Z,2.33
2023-04-12T20:32:28.283Z,2.50
2023-04-12T20:35:31.550Z,2.65
2023-04-12T20:38:35.850Z,2.60
2023-04-12T20:41:39.229Z,2.97
2023-04-12T20:44:43.443Z,2.90
2023-04-12T20:47:46.216Z,2.30
2023-04-12T20:50:50.473Z,2.53
2023-04-12T20:53:53.233Z,2.50
2023-04-12T20:56:56.073Z,2.50
2023-04-12T21:00:00.542Z,2.53
2023-04-12T21:03:04.170Z,2.25
2023-04-12T21:06:09.169Z,2.90
2023-04-12T21:09:11.954Z,2.50
2023-04-12T21:12:14.753Z,2.50
2023-04-12T21:15:22.147Z,2.97
2023-04-12T21:18:25.028Z,2.40
2023-04-12T21:21:28.612Z,2.58
2023-04-12T21:24:35.357Z,2.60
2023-04-12T21:27:38.511Z,3.00
2023-04-12T21:30:45.230Z,2.70
2023-04-12T21:33:48.128Z,2.47
2023-04-12T21:36:51.018Z,2.90
2023-04-12T21:39:53.758Z,2.67
2023-04-12T21:42:57.238Z,2.67
2023-04-12T21:46:01.507Z,2.43
2023-04-12T21:49:05.075Z,2.40
2023-04-12T21:52:08.280Z,2.72
2023-04-12T21:55:11.068Z,2.42
2023-04-12T21:58:14.024Z,2.90
2023-04-12T22:01:18.314Z,2.77
2023-04-12T22:04:21.375Z,2.90
2023-04-12T22:07:24.264Z,3.13
2023-04-12T22:10:27.260Z,2.75
2023-04-12T22:13:30.876Z,2.90
2023-04-12T22:16:35.195Z,2.60
2023-04-12T22:19:56.471Z,3.25
2023-04-12T22:22:59.258Z,3.08
2023-04-12T22:26:01.969Z,3.53
2023-04-12T22:29:06.185Z,3.00
2023-04-12T22:32:10.374Z,3.17
2023-04-12T22:35:13.100Z,3.70
2023-04-12T22:38:16.335Z,3.08
2023-04-12T22:41:19.923Z,3.03
2023-04-12T22:44:23.091Z,3.60
2023-04-12T22:47:28.239Z,4.10
2023-04-12T22:50:30.992Z,3.80
2023-04-12T22:53:34.393Z,3.55
2023-04-12T22:56:42.009Z,3.90
2023-04-12T22:59:44.863Z,4.13
2023-04-12T23:02:50.420Z,4.10
2023-04-12T23:05:53.498Z,3.78
2023-04-12T23:08:57.475Z,4.72
2023-04-12T23:12:00.208Z,3.90
2023-04-12T23:15:06.126Z,3.90
2023-04-12T23:18:10.836Z,3.90
2023-04-12T23:21:13.672Z,3.53
2023-04-12T23:24:16.693Z,3.72
2023-04-12T23:27:20.245Z,3.80
2023-04-12T23:30:26.431Z,3.77
2023-04-12T23:33:30.641Z,3.77
2023-04-12T23:36:34.926Z,3.70
2023-04-12T23:39:37.819Z,4.05
2023-04-12T23:42:40.524Z,3.38
2023-04-12T23:45:43.455Z,4.10
2023-04-12T23:48:47.686Z,4.37
2023-04-12T23:51:50.577Z,3.60
2023-04-12T23:54:53.421Z,3.88
2023-04-12T23:57:56.100Z,3.90
